Time;durP1;ratioP1;P1;durP2;ratioP2;P2;SDS_P1;SDS_P2;PMS_P1;PMS_P2;Temp;Humidity;BMP_temperature;BMP_pressure;BME280_temperature;BME280_humidity;BME280_pressure;Samples;Min_cycle;Max_cycle;Signal;HPM_P1;HPM_P2
2022/01/09 00:01:54;;;;;;;4.00;2.20;;;3.70;99.90;;;;;;5085578;28;20202;-78
2022/01/09 00:04:21;;;;;;;5.20;2.67;;;3.70;99.90;;;;;;5077368;28;20275;-79
2022/01/09 00:06:48;;;;;;;5.00;3.70;;;3.60;99.90;;;;;;5082138;28;20259;-79
2022/01/09 00:09:16;;;;;;;3.77;2.80;;;3.60;99.90;;;;;;5088965;28;20248;-79
2022/01/09 00:11:43;;;;;;;4.20;3.07;;;3.60;99.90;;;;;;5087570;28;20209;-79
2022/01/09 00:14:10;;;;;;;6.00;2.57;;;3.50;99.90;;;;;;5074947;28;20203;-79
2022/01/09 00:16:37;;;;;;;4.30;2.73;;;3.60;99.90;;;;;;5077624;28;20226;-79
2022/01/09 00:19:06;;;;;;;4.97;3.27;;;3.80;99.90;;;;;;5089073;28;20206;-79
2022/01/09 00:21:33;;;;;;;4.87;2.30;;;3.80;99.90;;;;;;5090218;28;20617;-79
2022/01/09 00:24:00;;;;;;;4.60;2.60;;;3.80;99.90;;;;;;5073565;28;20252;-79
2022/01/09 00:26:27;;;;;;;3.63;2.73;;;3.90;99.90;;;;;;5075342;28;20240;-79
2022/01/09 00:28:54;;;;;;;4.30;2.70;;;3.80;99.90;;;;;;5078956;28;20256;-79
2022/01/09 00:31:21;;;;;;;4.73;3.00;;;3.90;99.90;;;;;;5072734;28;20248;-79
2022/01/09 00:33:48;;;;;;;5.40;2.83;;;3.90;99.90;;;;;;5075096;28;20202;-79
2022/01/09 00:36:17;;;;;;;4.37;2.40;;;3.80;99.90;;;;;;5081577;28;20194;-79
2022/01/09 00:38:44;;;;;;;3.40;2.60;;;3.80;99.90;;;;;;5081063;28;20222;-79
2022/01/09 00:41:11;;;;;;;3.30;2.70;;;3.80;99.90;;;;;;5087723;28;20247;-79
2022/01/09 00:43:38;;;;;;;4.27;2.40;;;3.70;99.90;;;;;;5082602;28;20198;-79
2022/01/09 00:46:05;;;;;;;2.80;2.60;;;3.70;99.90;;;;;;5086095;28;20705;-71
2022/01/09 00:48:32;;;;;;;4.00;2.80;;;3.80;99.90;;;;;;5075409;28;20706;-79
2022/01/09 00:50:59;;;;;;;4.33;3.10;;;3.80;99.90;;;;;;5088701;28;20209;-79
2022/01/09 00:53:28;;;;;;;3.50;2.57;;;3.80;99.90;;;;;;5091175;28;20212;-79
2022/01/09 00:55:55;;;;;;;4.60;2.83;;;3.70;99.90;;;;;;5076035;28;20247;-78
2022/01/09 00:58:22;;;;;;;5.57;2.80;;;3.70;99.90;;;;;;5085582;28;20263;-79
2022/01/09 01:00:49;;;;;;;3.33;2.90;;;3.70;99.90;;;;;;5074915;28;20206;-79
2022/01/09 01:03:16;;;;;;;4.47;2.70;;;3.80;99.90;;;;;;5071530;28;20252;-78
2022/01/09 01:05:43;;;;;;;4.07;2.93;;;3.80;99.90;;;;;;5089956;28;20248;-79
2022/01/09 01:08:10;;;;;;;4.40;2.67;;;3.80;99.90;;;;;;5085853;28;20530;-79
2022/01/09 01:10:38;;;;;;;4.47;2.87;;;3.80;99.90;;;;;;5092279;28;20260;-79
2022/01/09 01:13:05;;;;;;;4.73;2.97;;;3.80;99.90;;;;;;5084975;28;20203;-79
2022/01/09 01:15:33;;;;;;;5.27;3.30;;;3.80;99.90;;;;;;5079075;28;20239;-78
2022/01/09 01:18:00;;;;;;;5.40;3.63;;;3.70;99.90;;;;;;5089915;28;20263;-79
2022/01/09 01:20:27;;;;;;;3.43;2.67;;;3.70;99.90;;;;;;5079872;28;20205;-79
2022/01/09 01:22:57;;;;;;;3.13;2.80;;;3.70;99.90;;;;;;5088659;28;20537;-79
2022/01/09 01:25:25;;;;;;;3.87;2.87;;;3.70;99.90;;;;;;5084761;28;20210;-78
2022/01/09 01:27:54;;;;;;;4.10;2.70;;;3.70;99.90;;;;;;5076827;28;20247;-79
2022/01/09 01:30:21;;;;;;;3.27;2.77;;;3.70;99.90;;;;;;5088720;28;20202;-79
2022/01/09 01:32:48;;;;;;;5.77;2.90;;;3.70;99.90;;;;;;5088541;28;20268;-79
2022/01/09 01:35:15;;;;;;;3.40;2.57;;;3.70;99.90;;;;;;5073854;28;20240;-79
2022/01/09 01:37:42;;;;;;;4.27;2.97;;;3.70;99.90;;;;;;5082889;28;20277;-79
2022/01/09 01:40:12;;;;;;;4.13;2.70;;;3.70;99.90;;;;;;5081275;28;20202;-79
2022/01/09 01:42:39;;;;;;;2.80;2.30;;;3.80;99.90;;;;;;5074388;28;20252;-79
2022/01/09 01:45:09;;;;;;;4.70;2.87;;;3.70;99.90;;;;;;5078228;28;20241;-79
2022/01/09 01:47:37;;;;;;;4.27;2.70;;;3.80;99.90;;;;;;5071966;28;20221;-79
2022/01/09 01:50:05;;;;;;;3.27;2.67;;;3.80;99.90;;;;;;5077829;28;20701;-79
2022/01/09 01:52:37;;;;;;;4.00;3.07;;;3.80;99.90;;;;;;5087696;28;20247;-79
2022/01/09 01:55:05;;;;;;;5.00;2.60;;;3.80;99.90;;;;;;5090842;28;20205;-79
2022/01/09 01:57:33;;;;;;;2.63;2.30;;;3.80;99.90;;;;;;5081777;28;20702;-78
2022/01/09 02:00:00;;;;;;;3.13;2.17;;;3.80;99.90;;;;;;5090592;28;20201;-79
2022/01/09 02:02:28;;;;;;;5.10;2.40;;;3.80;99.90;;;;;;5077545;28;20239;-79
2022/01/09 02:04:55;;;;;;;4.57;2.63;;;3.80;99.90;;;;;;5089757;28;20216;-79
2022/01/09 02:07:23;;;;;;;2.57;2.23;;;3.80;99.90;;;;;;5084778;28;20251;-79
2022/01/09 02:09:50;;;;;;;2.93;2.40;;;3.70;99.90;;;;;;5084598;28;20210;-79
2022/01/09 02:12:18;;;;;;;3.10;2.43;;;3.80;99.90;;;;;;5076359;28;20243;-79
2022/01/09 02:14:47;;;;;;;4.63;2.70;;;3.80;99.90;;;;;;5082771;28;20198;-78
2022/01/09 02:17:18;;;;;;;2.60;2.33;;;3.90;99.90;;;;;;5079078;28;20225;-79
2022/01/09 02:19:53;;;;;;;2.30;2.10;;;3.80;99.90;;;;;;5091655;28;20205;-79
2022/01/09 02:22:21;;;;;;;3.10;2.17;;;3.80;99.90;;;;;;5079728;28;20201;-79
2022/01/09 02:24:48;;;;;;;3.20;2.30;;;3.70;99.90;;;;;;5090942;28;20201;-79
2022/01/09 02:27:15;;;;;;;3.33;2.47;;;3.60;99.90;;;;;;5083285;28;20613;-79
2022/01/09 02:29:42;;;;;;;4.10;2.43;;;3.60;99.90;;;;;;5088878;28;20251;-79
2022/01/09 02:32:10;;;;;;;2.70;2.30;;;3.70;99.90;;;;;;5085465;28;20259;-79
2022/01/09 02:34:36;;;;;;;3.20;2.30;;;3.70;99.90;;;;;;5087744;28;20640;-79
2022/01/09 02:37:05;;;;;;;3.93;2.33;;;3.70;99.90;;;;;;5079417;28;20203;-78
2022/01/09 02:39:32;;;;;;;2.60;2.37;;;3.70;99.90;;;;;;5083908;28;20255;-79
2022/01/09 02:41:59;;;;;;;2.60;2.23;;;3.70;99.90;;;;;;5091159;28;20201;-79
2022/01/09 02:44:26;;;;;;;3.20;2.57;;;3.70;99.90;;;;;;5083184;28;20199;-79
2022/01/09 02:47:01;;;;;;;2.07;1.93;;;3.70;99.90;;;;;;5081600;28;20256;-79
2022/01/09 02:49:30;;;;;;;2.43;1.97;;;3.70;99.90;;;;;;5088300;28;20201;-79
2022/01/09 02:51:58;;;;;;;2.63;2.13;;;3.80;99.90;;;;;;5081433;28;20202;-78
2022/01/09 02:57:11;;;;;;;4.10;2.20;;;3.80;99.90;;;;;;5077857;28;20209;-79
2022/01/09 02:59:38;;;;;;;2.50;2.20;;;3.80;99.90;;;;;;5087640;28;20198;-79
2022/01/09 03:02:06;;;;;;;3.80;2.13;;;3.80;99.90;;;;;;5078495;28;20228;-79
2022/01/09 03:04:33;;;;;;;2.60;2.37;;;3.80;99.90;;;;;;5088215;28;20202;-79
2022/01/09 03:07:00;;;;;;;3.83;1.90;;;3.90;99.90;;;;;;5081349;28;20643;-79
2022/01/09 03:09:28;;;;;;;3.23;2.13;;;3.90;99.90;;;;;;5089331;28;20209;-79
2022/01/09 03:11:55;;;;;;;2.30;2.10;;;3.90;99.90;;;;;;5070385;28;20206;-72
2022/01/09 03:14:25;;;;;;;2.40;2.20;;;3.90;99.90;;;;;;5078857;28;20194;-78
2022/01/09 03:16:52;;;;;;;4.30;2.73;;;3.90;99.90;;;;;;5074846;28;20190;-79
2022/01/09 03:19:19;;;;;;;2.27;2.07;;;3.90;99.90;;;;;;5090104;28;20278;-78
2022/01/09 03:21:46;;;;;;;2.83;2.07;;;3.90;99.90;;;;;;5075685;28;20251;-78
2022/01/09 03:24:13;;;;;;;2.63;2.10;;;3.90;99.90;;;;;;5079882;28;20193;-79
2022/01/09 03:26:43;;;;;;;3.37;2.00;;;3.90;99.90;;;;;;5089091;28;20687;-79
2022/01/09 03:29:09;;;;;;;2.03;1.70;;;4.00;99.90;;;;;;5072280;28;20293;-78
2022/01/09 03:31:37;;;;;;;3.63;2.00;;;4.00;99.90;;;;;;5084833;28;20198;-79
2022/01/09 03:34:04;;;;;;;2.47;2.07;;;4.00;99.90;;;;;;5072733;28;20198;-78
2022/01/09 03:36:31;;;;;;;2.30;2.10;;;4.10;99.90;;;;;;5084211;28;20202;-79
2022/01/09 03:38:58;;;;;;;2.57;2.20;;;4.10;99.90;;;;;;5086357;28;20283;-79
2022/01/09 03:41:25;;;;;;;2.83;2.53;;;4.10;99.90;;;;;;5084972;28;20220;-79
2022/01/09 03:43:53;;;;;;;3.33;2.17;;;4.10;99.90;;;;;;5081707;28;20199;-79
2022/01/09 03:46:21;;;;;;;2.93;2.30;;;4.10;99.90;;;;;;5078313;28;20195;-79
2022/01/09 03:48:48;;;;;;;2.17;2.00;;;4.10;99.90;;;;;;5070440;28;20202;-79
2022/01/09 03:51:15;;;;;;;3.37;2.20;;;4.10;99.90;;;;;;5083085;28;20234;-79
2022/01/09 03:53:42;;;;;;;4.90;2.23;;;4.10;99.90;;;;;;5091011;28;20201;-79
2022/01/09 03:56:09;;;;;;;2.20;2.00;;;4.10;99.90;;;;;;5092559;28;20925;-79
2022/01/09 03:58:36;;;;;;;2.53;2.23;;;4.10;99.90;;;;;;5094427;28;20217;-79
2022/01/09 04:01:06;;;;;;;2.93;2.10;;;4.10;99.90;;;;;;5090347;28;20205;-79
2022/01/09 04:03:33;;;;;;;2.47;2.00;;;4.20;99.90;;;;;;5082033;28;20221;-79
2022/01/09 04:06:01;;;;;;;1.87;1.77;;;4.20;99.90;;;;;;5092791;28;20214;-79
2022/01/09 04:08:38;;;;;;;2.47;1.93;;;4.20;99.90;;;;;;5080376;28;20202;-70
2022/01/09 04:11:06;;;;;;;3.33;1.83;;;4.20;99.90;;;;;;5093183;28;20660;-70
2022/01/09 04:13:33;;;;;;;2.60;2.00;;;4.30;99.90;;;;;;5082631;28;20202;-70
2022/01/09 04:16:00;;;;;;;1.77;1.67;;;4.20;99.90;;;;;;5080128;28;20198;-71
2022/01/09 04:18:28;;;;;;;2.57;2.37;;;4.20;99.90;;;;;;5080719;28;20220;-71
2022/01/09 04:20:55;;;;;;;2.77;2.20;;;4.20;99.90;;;;;;5085082;28;20229;-70
2022/01/09 04:23:22;;;;;;;2.03;1.83;;;4.20;99.90;;;;;;5081052;28;20572;-71
2022/01/09 04:25:49;;;;;;;2.40;2.00;;;4.20;99.90;;;;;;5077642;28;20190;-70
2022/01/09 04:28:16;;;;;;;3.00;1.80;;;4.20;99.90;;;;;;5081081;28;20640;-70
2022/01/09 04:30:44;;;;;;;1.97;1.77;;;4.20;99.90;;;;;;5090366;28;20667;-71
2022/01/09 04:33:11;;;;;;;2.00;1.77;;;4.20;99.90;;;;;;5085067;28;20198;-70
2022/01/09 04:35:40;;;;;;;2.07;1.87;;;4.20;99.90;;;;;;5091943;28;20202;-71
2022/01/09 04:38:08;;;;;;;2.00;1.80;;;4.20;99.90;;;;;;5087888;28;20224;-71
2022/01/09 04:40:35;;;;;;;2.60;1.90;;;4.20;99.90;;;;;;5093660;28;20206;-71
2022/01/09 04:43:04;;;;;;;3.60;2.13;;;4.20;99.90;;;;;;5090551;28;20250;-71
2022/01/09 04:45:31;;;;;;;2.00;1.90;;;4.20;99.90;;;;;;5093060;28;20205;-71
2022/01/09 04:48:02;;;;;;;2.13;1.77;;;4.10;99.90;;;;;;5087359;28;20201;-70
2022/01/09 04:50:31;;;;;;;2.20;2.00;;;4.10;99.90;;;;;;5085657;28;20198;-71
2022/01/09 04:53:04;;;;;;;2.27;2.07;;;4.10;99.90;;;;;;5089799;28;20632;-71
2022/01/09 04:55:33;;;;;;;1.73;1.63;;;4.10;99.90;;;;;;5093771;28;20205;-70
2022/01/09 04:58:00;;;;;;;1.80;1.70;;;4.10;99.90;;;;;;5093403;28;20220;-71
2022/01/09 05:00:27;;;;;;;2.23;1.97;;;4.10;99.90;;;;;;5092390;28;20300;-71
2022/01/09 05:02:54;;;;;;;1.90;1.80;;;4.10;99.90;;;;;;5091889;28;20235;-70
2022/01/09 05:05:21;;;;;;;2.30;2.10;;;4.00;99.90;;;;;;5093053;28;20197;-70
2022/01/09 05:07:49;;;;;;;2.20;2.00;;;4.10;99.90;;;;;;5092446;28;20201;-70
2022/01/09 05:10:17;;;;;;;1.70;1.60;;;4.10;99.90;;;;;;5093175;28;20204;-70
2022/01/09 05:12:44;;;;;;;1.80;1.70;;;4.10;99.90;;;;;;5093241;28;20651;-70
2022/01/09 05:15:13;;;;;;;1.87;1.77;;;4.00;99.90;;;;;;5089436;28;20831;-70
2022/01/09 05:17:40;;;;;;;1.97;1.83;;;4.00;99.90;;;;;;5081570;28;20199;-70
2022/01/09 05:20:08;;;;;;;7.30;4.50;;;4.00;99.90;;;;;;5077584;28;20225;-71
2022/01/09 05:22:35;;;;;;;3.70;3.07;;;4.00;99.90;;;;;;5087100;28;20212;-70
2022/01/09 05:25:02;;;;;;;2.00;1.90;;;4.00;99.90;;;;;;5080705;28;20301;-70
2022/01/09 05:27:31;;;;;;;1.87;1.77;;;4.00;99.90;;;;;;5080958;28;20199;-70
2022/01/09 05:29:58;;;;;;;2.00;1.90;;;3.90;99.90;;;;;;5074940;28;20201;-70
2022/01/09 05:32:25;;;;;;;3.07;2.30;;;3.90;99.90;;;;;;5087449;28;20199;-71
2022/01/09 05:34:51;;;;;;;2.47;2.20;;;3.90;99.90;;;;;;5076992;28;20205;-72
2022/01/09 05:37:19;;;;;;;1.70;1.60;;;3.90;99.90;;;;;;5087593;28;20190;-72
2022/01/09 05:39:45;;;;;;;2.77;2.00;;;3.80;99.90;;;;;;5089149;28;20229;-72
2022/01/09 05:42:14;;;;;;;2.23;2.03;;;3.90;99.90;;;;;;5097622;28;20559;-72
2022/01/09 05:44:42;;;;;;;2.27;2.07;;;3.80;99.90;;;;;;5094483;28;20212;-72
2022/01/09 05:47:10;;;;;;;2.00;1.90;;;3.80;99.90;;;;;;5092369;28;20198;-72
2022/01/09 05:49:36;;;;;;;2.80;1.77;;;3.80;99.90;;;;;;5096921;28;20204;-72
2022/01/09 05:52:04;;;;;;;1.70;1.60;;;3.80;99.90;;;;;;5093638;28;20199;-72
2022/01/09 05:54:31;;;;;;;2.40;2.03;;;3.70;99.90;;;;;;5097955;28;20202;-72
2022/01/09 05:56:58;;;;;;;2.00;1.90;;;3.80;99.90;;;;;;5094722;28;20200;-72
2022/01/09 05:59:25;;;;;;;2.03;1.90;;;3.80;99.90;;;;;;5091923;28;20228;-72
2022/01/09 06:01:53;;;;;;;1.93;1.73;;;3.80;99.90;;;;;;5096831;28;20719;-72
2022/01/09 06:04:20;;;;;;;2.20;2.00;;;3.70;99.90;;;;;;5093249;28;20206;-72
2022/01/09 06:06:49;;;;;;;3.00;1.93;;;3.70;99.90;;;;;;5095368;28;20201;-72
2022/01/09 06:09:16;;;;;;;2.10;1.90;;;3.80;99.90;;;;;;5096121;28;20204;-72
2022/01/09 06:11:43;;;;;;;2.10;1.90;;;3.70;99.90;;;;;;5092621;28;20194;-72
2022/01/09 06:14:10;;;;;;;1.83;1.70;;;3.70;99.90;;;;;;5101589;28;20197;-72
2022/01/09 06:16:37;;;;;;;2.17;1.90;;;3.70;99.90;;;;;;5095449;28;20205;-72
2022/01/09 06:19:06;;;;;;;1.70;1.60;;;3.70;99.90;;;;;;5094981;28;20291;-72
2022/01/09 06:21:32;;;;;;;1.97;1.80;;;3.70;99.90;;;;;;5093372;28;20197;-72
2022/01/09 06:23:59;;;;;;;1.70;1.60;;;3.70;99.90;;;;;;5101654;28;20207;-72
2022/01/09 06:26:26;;;;;;;2.03;1.63;;;3.70;99.90;;;;;;5095477;28;20198;-72
2022/01/09 06:28:53;;;;;;;1.53;1.40;;;3.70;99.90;;;;;;5087203;28;20197;-72
2022/01/09 06:31:20;;;;;;;1.70;1.60;;;3.80;99.90;;;;;;5090880;28;20209;-72
2022/01/09 06:33:47;;;;;;;2.70;1.50;;;3.80;99.90;;;;;;5093781;28;20198;-72
2022/01/09 06:36:15;;;;;;;1.37;1.27;;;3.80;99.90;;;;;;5090085;28;20211;-72
2022/01/09 06:38:42;;;;;;;1.90;1.50;;;3.70;99.90;;;;;;5090131;28;20718;-72
2022/01/09 06:41:09;;;;;;;1.47;1.30;;;3.70;99.90;;;;;;5088643;28;20198;-72
2022/01/09 06:43:36;;;;;;;1.20;1.10;;;3.70;99.90;;;;;;5093012;28;20262;-72
2022/01/09 06:46:03;;;;;;;0.80;0.80;;;3.70;99.90;;;;;;5090858;28;20201;-72
2022/01/09 06:48:30;;;;;;;1.40;1.30;;;3.70;99.90;;;;;;5094093;28;20201;-72
2022/01/09 06:50:56;;;;;;;1.17;1.10;;;3.60;99.90;;;;;;5091229;28;20208;-72
2022/01/09 06:53:25;;;;;;;6.27;3.67;;;3.70;99.90;;;;;;5099671;28;20193;-72
2022/01/09 06:55:52;;;;;;;3.30;2.53;;;3.60;99.90;;;;;;5101205;28;20206;-72
2022/01/09 06:58:21;;;;;;;1.50;1.23;;;3.60;99.90;;;;;;5093572;28;20670;-72
2022/01/09 07:00:48;;;;;;;1.00;1.00;;;3.60;99.90;;;;;;5092019;28;20197;-72
2022/01/09 07:03:15;;;;;;;1.50;1.40;;;3.60;99.90;;;;;;5091605;28;20217;-72
2022/01/09 07:05:42;;;;;;;1.57;1.33;;;3.60;99.90;;;;;;5094251;28;20198;-72
2022/01/09 07:08:09;;;;;;;1.57;1.47;;;3.50;99.90;;;;;;5087811;28;20197;-72
2022/01/09 07:10:38;;;;;;;1.87;1.73;;;3.50;99.90;;;;;;5093341;28;20201;-72
2022/01/09 07:13:05;;;;;;;1.90;1.67;;;3.50;99.90;;;;;;5096037;28;20640;-72
2022/01/09 07:15:32;;;;;;;1.80;1.70;;;3.50;99.90;;;;;;5091788;28;20230;-72
2022/01/09 07:17:59;;;;;;;1.80;1.67;;;3.50;99.90;;;;;;5092104;28;20202;-72
2022/01/09 07:20:26;;;;;;;1.87;1.60;;;3.50;99.90;;;;;;5099190;28;20217;-72
2022/01/09 07:22:53;;;;;;;2.03;1.83;;;3.50;99.90;;;;;;5089796;28;20198;-72
2022/01/09 07:25:20;;;;;;;1.90;1.70;;;3.40;99.90;;;;;;5095672;28;20197;-72
2022/01/09 07:27:48;;;;;;;1.80;1.70;;;3.40;99.90;;;;;;5096966;28;20193;-72
2022/01/09 07:30:15;;;;;;;8.23;2.10;;;3.40;99.90;;;;;;5098180;28;20189;-72
2022/01/09 07:32:42;;;;;;;1.87;1.70;;;3.30;99.90;;;;;;5094744;28;20208;-72
2022/01/09 07:35:10;;;;;;;2.57;1.80;;;3.30;99.90;;;;;;5093036;28;20236;-72
2022/01/09 07:37:36;;;;;;;2.73;1.53;;;3.30;99.90;;;;;;5090891;28;20197;-72
2022/01/09 07:40:04;;;;;;;1.73;1.63;;;3.20;99.90;;;;;;5101173;28;20765;-72
2022/01/09 07:42:31;;;;;;;3.70;3.10;;;3.20;99.90;;;;;;5099321;28;20205;-72
2022/01/09 07:45:00;;;;;;;1.90;1.70;;;3.20;99.90;;;;;;5094019;28;20679;-72
2022/01/09 07:47:27;;;;;;;2.00;1.70;;;3.10;99.90;;;;;;5092638;28;20208;-72
2022/01/09 07:49:54;;;;;;;3.17;1.70;;;3.00;99.90;;;;;;5097233;28;20644;-72
2022/01/09 07:52:21;;;;;;;1.87;1.63;;;2.90;99.90;;;;;;5099476;28;20293;-72
2022/01/09 07:54:48;;;;;;;8.00;4.03;;;2.90;99.90;;;;;;5096886;28;20213;-72
2022/01/09 07:57:15;;;;;;;2.00;1.90;;;2.90;99.90;;;;;;5093022;28;20305;-72
2022/01/09 07:59:42;;;;;;;4.13;2.33;;;2.90;99.90;;;;;;5096956;28;20213;-72
2022/01/09 08:02:10;;;;;;;2.23;1.97;;;2.90;99.90;;;;;;5091701;28;20212;-72
2022/01/09 08:04:37;;;;;;;2.20;2.00;;;2.90;99.90;;;;;;5097783;28;20301;-72
2022/01/09 08:07:05;;;;;;;2.20;1.90;;;2.90;99.90;;;;;;5095617;28;20217;-72
2022/01/09 08:09:31;;;;;;;2.43;2.20;;;2.90;99.90;;;;;;5100894;28;20193;-72
2022/01/09 08:11:58;;;;;;;2.40;2.20;;;3.00;99.90;;;;;;5093497;28;20648;-72
2022/01/09 08:14:25;;;;;;;2.20;2.00;;;3.00;99.90;;;;;;5098305;28;20207;-72
2022/01/09 08:16:52;;;;;;;1.93;1.83;;;3.00;99.90;;;;;;5097895;28;20652;-72
2022/01/09 08:19:20;;;;;;;3.00;2.07;;;3.00;99.90;;;;;;5094472;28;20220;-72
2022/01/09 08:21:47;;;;;;;2.83;2.00;;;3.00;99.90;;;;;;5102210;28;20818;-72
2022/01/09 08:24:15;;;;;;;2.23;2.03;;;3.00;99.90;;;;;;5094682;28;20194;-72
2022/01/09 08:26:42;;;;;;;2.50;2.30;;;3.00;99.90;;;;;;5094741;28;20677;-72
2022/01/09 08:29:09;;;;;;;4.13;2.40;;;3.10;99.90;;;;;;5100020;28;20193;-72
2022/01/09 08:31:36;;;;;;;2.40;2.13;;;3.10;99.90;;;;;;5098018;28;20212;-72
2022/01/09 08:34:03;;;;;;;2.27;2.07;;;3.00;99.90;;;;;;5098287;28;20664;-72
2022/01/09 08:36:32;;;;;;;1.80;1.70;;;3.10;99.90;;;;;;5088042;28;20228;-72
2022/01/09 08:38:59;;;;;;;1.40;1.30;;;3.00;99.90;;;;;;5095061;28;20244;-72
2022/01/09 08:41:26;;;;;;;1.70;1.60;;;3.10;99.90;;;;;;5100868;28;20209;-72
2022/01/09 08:43:53;;;;;;;1.90;1.80;;;2.90;99.90;;;;;;5097733;28;20198;-72
2022/01/09 08:46:19;;;;;;;2.17;1.97;;;2.90;99.90;;;;;;5093316;28;20673;-71
2022/01/09 08:48:46;;;;;;;1.80;1.70;;;2.80;99.90;;;;;;5097303;28;20193;-71
2022/01/09 08:51:13;;;;;;;2.20;1.90;;;2.60;99.90;;;;;;5095170;28;20200;-77
2022/01/09 08:53:50;;;;;;;2.20;2.00;;;2.40;99.90;;;;;;5095719;28;20818;-76
2022/01/09 08:56:17;;;;;;;3.37;2.27;;;2.30;99.90;;;;;;5098212;28;20235;-77
2022/01/09 08:58:44;;;;;;;2.20;2.00;;;2.30;99.90;;;;;;5090523;28;20194;-76
2022/01/09 09:01:11;;;;;;;2.40;2.03;;;2.30;99.90;;;;;;5098063;28;20218;-77
2022/01/09 09:03:40;;;;;;;1.93;1.73;;;2.10;99.90;;;;;;5093945;28;20206;-76
2022/01/09 09:06:10;;;;;;;1.93;1.77;;;2.10;99.90;;;;;;5094565;28;20297;-77
2022/01/09 09:08:37;;;;;;;1.50;1.40;;;2.10;99.90;;;;;;5093410;28;20276;-77
2022/01/09 09:11:07;;;;;;;1.73;1.63;;;2.10;99.90;;;;;;5091304;28;20197;-77
2022/01/09 09:13:35;;;;;;;1.53;1.43;;;2.10;99.90;;;;;;5092872;28;20203;-76
2022/01/09 09:16:02;;;;;;;1.90;1.40;;;2.20;99.90;;;;;;5098201;28;20202;-77
2022/01/09 09:18:29;;;;;;;1.57;1.23;;;2.20;99.90;;;;;;5095218;28;20212;-77
2022/01/09 09:20:56;;;;;;;0.77;0.77;;;2.30;99.90;;;;;;5100855;28;20209;-77
2022/01/09 09:23:23;;;;;;;2.27;1.30;;;2.30;99.90;;;;;;5096807;28;20193;-77
2022/01/09 09:25:50;;;;;;;1.83;1.30;;;2.40;99.90;;;;;;5095771;28;20747;-77
2022/01/09 09:28:19;;;;;;;1.60;1.50;;;2.50;99.90;;;;;;5096459;28;20207;-77
2022/01/09 09:30:47;;;;;;;1.80;1.40;;;2.60;99.90;;;;;;5096647;28;20198;-77
2022/01/09 09:33:14;;;;;;;1.23;1.13;;;2.70;99.90;;;;;;5092654;28;20224;-77
2022/01/09 09:35:41;;;;;;;1.70;1.60;;;2.70;99.90;;;;;;5098148;28;20642;-77
2022/01/09 09:38:08;;;;;;;1.10;1.00;;;2.80;99.90;;;;;;5093294;28;20201;-77
2022/01/09 09:40:35;;;;;;;1.60;1.07;;;2.80;99.90;;;;;;5094251;28;20217;-77
2022/01/09 09:43:02;;;;;;;1.37;1.27;;;2.90;99.90;;;;;;5094982;28;20240;-77
2022/01/09 09:45:30;;;;;;;1.37;1.10;;;3.00;99.90;;;;;;5100243;28;20213;-78
2022/01/09 09:47:57;;;;;;;2.73;1.67;;;3.00;99.90;;;;;;5094261;28;20206;-77
2022/01/09 09:50:24;;;;;;;3.03;1.30;;;3.00;99.90;;;;;;5096693;28;20193;-77
2022/01/09 09:52:51;;;;;;;1.47;1.00;;;3.10;99.90;;;;;;5092259;28;20554;-76
2022/01/09 09:55:20;;;;;;;1.13;1.03;;;3.10;99.90;;;;;;5088513;28;20201;-77
2022/01/09 09:57:47;;;;;;;2.07;1.03;;;3.20;99.90;;;;;;5087541;28;20663;-76
2022/01/09 10:00:17;;;;;;;3.20;1.40;;;3.20;99.90;;;;;;5078696;28;20218;-77
2022/01/09 10:02:47;;;;;;;2.50;1.47;;;3.20;99.90;;;;;;5085166;28;20248;-76
2022/01/09 10:05:16;;;;;;;2.60;2.00;;;3.30;99.90;;;;;;5073599;28;20216;-77
2022/01/09 10:07:43;;;;;;;2.67;1.87;;;3.30;99.90;;;;;;5072867;28;20206;-77
2022/01/09 10:10:14;;;;;;;3.40;2.03;;;3.30;99.90;;;;;;5080038;28;20206;-75
2022/01/09 10:12:43;;;;;;;2.93;2.10;;;3.40;99.90;;;;;;5085042;28;20206;-72
2022/01/09 10:15:12;;;;;;;4.70;2.47;;;3.40;99.90;;;;;;5088320;28;20693;-72
2022/01/09 10:17:43;;;;;;;5.10;2.60;;;3.50;99.90;;;;;;5093338;28;20343;-72
2022/01/09 10:20:13;;;;;;;6.40;2.60;;;3.50;99.90;;;;;;5094470;28;20657;-72
2022/01/09 10:22:44;;;;;;;6.10;3.80;;;3.60;99.90;;;;;;5097004;28;20262;-73
2022/01/09 10:25:31;;;;;;;6.97;3.03;;;3.60;99.90;;;;;;5080987;28;20241;-73
2022/01/09 10:28:04;;;;;;;7.37;3.00;;;3.70;99.90;;;;;;5089864;28;20577;-73
2022/01/09 10:30:34;;;;;;;5.70;3.23;;;3.70;99.90;;;;;;5089835;28;20209;-73
2022/01/09 10:33:04;;;;;;;5.70;3.00;;;3.80;99.90;;;;;;5093814;28;20202;-73
2022/01/09 10:35:33;;;;;;;7.27;3.37;;;3.80;99.90;;;;;;5083966;28;20208;-73
2022/01/09 10:38:22;;;;;;;7.47;3.93;;;3.90;99.90;;;;;;5089079;28;20224;-71
2022/01/09 10:40:54;;;;;;;11.37;4.17;;;4.10;99.90;;;;;;5086685;28;20317;-71
2022/01/09 10:43:22;;;;;;;11.57;4.27;;;4.20;99.90;;;;;;5092928;28;20273;-72
2022/01/09 10:45:58;;;;;;;9.77;4.10;;;4.40;99.90;;;;;;5095467;28;20237;-73
2022/01/09 10:48:26;;;;;;;10.43;4.13;;;4.50;99.90;;;;;;5076149;28;20209;-72
2022/01/09 10:50:55;;;;;;;16.67;4.57;;;4.60;99.90;;;;;;5088377;28;20233;-72
2022/01/09 10:53:29;;;;;;;15.53;5.20;;;4.70;99.90;;;;;;5095319;28;20635;-72
2022/01/09 10:56:08;;;;;;;16.37;5.40;;;4.70;99.90;;;;;;5090036;28;20204;-72
2022/01/09 10:58:37;;;;;;;13.73;5.20;;;4.80;99.90;;;;;;5091697;28;20266;-72
2022/01/09 11:01:23;;;;;;;19.50;5.40;;;4.80;99.90;;;;;;5097811;28;20629;-72
2022/01/09 11:03:53;;;;;;;14.13;4.30;;;4.90;99.90;;;;;;5095722;28;20220;-71
2022/01/09 11:06:22;;;;;;;9.73;3.37;;;4.90;99.90;;;;;;5099925;28;20228;-72
2022/01/09 11:08:49;;;;;;;15.90;3.87;;;5.00;99.90;;;;;;5098186;28;20605;-72
2022/01/09 11:11:29;;;;;;;8.50;3.73;;;5.10;99.90;;;;;;5098785;28;20213;-70
2022/01/09 11:14:00;;;;;;;10.67;3.60;;;5.10;99.90;;;;;;5097667;28;20216;-69
2022/01/09 11:16:34;;;;;;;14.47;4.80;;;5.20;99.90;;;;;;5090154;28;20221;-76
2022/01/09 11:19:05;;;;;;;12.83;3.97;;;5.20;99.90;;;;;;5097069;28;20293;-76
2022/01/09 11:21:34;;;;;;;12.47;4.20;;;5.30;99.90;;;;;;5101487;28;20269;-71
2022/01/09 11:24:25;;;;;;;11.80;4.00;;;5.30;99.90;;;;;;5099108;28;20232;-75
2022/01/09 11:26:58;;;;;;;9.33;4.00;;;5.30;99.90;;;;;;5072694;28;20248;-75
2022/01/09 11:29:31;;;;;;;9.70;3.60;;;5.40;99.90;;;;;;5096934;28;20802;-76
2022/01/09 11:32:16;;;;;;;15.33;5.13;;;5.50;99.90;;;;;;5102802;28;20220;-76
2022/01/09 11:34:54;;;;;;;5.93;2.67;;;5.50;99.90;;;;;;5105566;28;20246;-75
2022/01/09 11:37:36;;;;;;;12.17;3.97;;;5.60;99.90;;;;;;5106665;28;20655;-75
2022/01/09 11:40:04;;;;;;;12.00;3.43;;;5.60;99.90;;;;;;5097979;28;20269;-76
2022/01/09 11:42:31;;;;;;;17.00;6.20;;;5.60;99.90;;;;;;5107195;28;20259;-75
2022/01/09 11:44:58;;;;;;;11.13;3.37;;;5.70;99.90;;;;;;5102813;28;20237;-75
2022/01/09 11:47:26;;;;;;;11.87;3.50;;;5.70;99.90;;;;;;5105915;28;20213;-75
2022/01/09 11:50:08;;;;;;;13.73;3.10;;;5.70;99.90;;;;;;5105160;28;20321;-75
2022/01/09 11:52:58;;;;;;;11.67;3.50;;;5.70;99.90;;;;;;5092368;28;20200;-74
2022/01/09 11:55:41;;;;;;;10.77;3.30;;;5.70;99.90;;;;;;5104487;28;20197;-75
2022/01/09 11:58:11;;;;;;;11.13;3.77;;;5.70;99.90;;;;;;5092956;28;20212;-75
2022/01/09 12:00:40;;;;;;;12.83;2.90;;;5.70;99.90;;;;;;5104488;28;20229;-75
2022/01/09 12:03:35;;;;;;;14.40;3.97;;;5.70;99.90;;;;;;5102669;28;20302;-75
2022/01/09 12:06:04;;;;;;;13.13;2.73;;;5.80;99.90;;;;;;5102675;28;20686;-76
2022/01/09 12:09:02;;;;;;;15.87;3.30;;;5.80;99.90;;;;;;5104258;28;20293;-75
2022/01/09 12:12:02;;;;;;;18.33;3.47;;;5.80;99.90;;;;;;5094680;28;20205;-76
2022/01/09 12:14:56;;;;;;;12.23;3.03;;;5.80;99.90;;;;;;5092853;28;20674;-75
2022/01/09 12:17:42;;;;;;;12.27;3.00;;;5.90;99.90;;;;;;5088707;28;20205;-76
2022/01/09 12:20:24;;;;;;;13.43;4.20;;;5.90;99.90;;;;;;5105768;28;20245;-74
2022/01/09 12:23:01;;;;;;;9.47;2.80;;;5.90;99.90;;;;;;5107281;28;20225;-74
2022/01/09 12:25:53;;;;;;;13.97;3.10;;;5.90;99.90;;;;;;5094486;28;20659;-69
2022/01/09 12:28:38;;;;;;;10.53;3.67;;;5.80;99.90;;;;;;5095482;28;20283;-70
2022/01/09 12:31:07;;;;;;;9.40;3.87;;;5.80;99.90;;;;;;5091113;28;20206;-71
2022/01/09 12:33:52;;;;;;;9.60;3.20;;;5.80;99.90;;;;;;5102003;28;20260;-71
2022/01/09 12:36:31;;;;;;;12.03;2.87;;;5.80;99.90;;;;;;5102844;28;20205;-71
2022/01/09 12:39:02;;;;;;;14.90;3.73;;;5.80;99.90;;;;;;5100562;28;20205;-71
2022/01/09 12:41:32;;;;;;;10.90;3.60;;;5.80;99.90;;;;;;5102451;28;20282;-72
2022/01/09 12:44:06;;;;;;;10.23;3.33;;;5.80;99.90;;;;;;5097308;28;20249;-71
2022/01/09 12:46:38;;;;;;;11.77;3.00;;;5.80;99.90;;;;;;5107653;28;20207;-72
2022/01/09 12:49:07;;;;;;;11.30;3.63;;;5.80;99.90;;;;;;5101239;28;20198;-71
2022/01/09 12:51:34;;;;;;;12.53;3.97;;;5.80;99.90;;;;;;5098526;28;20247;-71
2022/01/09 12:54:05;;;;;;;11.27;3.27;;;5.80;99.90;;;;;;5099977;28;20949;-71
2022/01/09 12:56:33;;;;;;;10.80;3.80;;;5.80;99.90;;;;;;5100019;28;20206;-71
2022/01/09 12:59:05;;;;;;;13.77;3.87;;;5.80;99.90;;;;;;5102479;28;20286;-71
2022/01/09 13:01:38;;;;;;;12.63;3.50;;;5.80;99.90;;;;;;5103254;28;20231;-72
2022/01/09 13:04:11;;;;;;;15.40;3.53;;;5.80;99.90;;;;;;5099869;28;20240;-72
2022/01/09 13:06:40;;;;;;;12.83;4.60;;;5.80;99.90;;;;;;5101333;28;20555;-72
2022/01/09 13:09:14;;;;;;;11.63;3.50;;;5.80;99.90;;;;;;5102629;28;20233;-72